createdAt,value
2019-02-05T00:00:43.104Z,7.10
2019-02-05T00:01:43.115Z,6.30
2019-02-05T00:02:43.124Z,9.30
2019-02-05T00:03:43.131Z,7.90
2019-02-05T00:04:43.141Z,8.00
2019-02-05T00:05:43.154Z,7.60
2019-02-05T00:06:43.163Z,8.60
2019-02-05T00:07:43.187Z,8.30
2019-02-05T00:08:43.197Z,7.90
2019-02-05T00:09:43.196Z,6.70
2019-02-05T00:10:43.198Z,8.30
2019-02-05T00:11:43.215Z,6.50
2019-02-05T00:12:43.221Z,8.40
2019-02-05T00:13:43.225Z,8.30
2019-02-05T00:14:43.303Z,8.70
2019-02-05T00:15:43.244Z,6.90
2019-02-05T00:16:43.366Z,7.30
2019-02-05T00:17:43.362Z,7.10
2019-02-05T00:19:43.535Z,8.40
2019-02-05T00:20:43.294Z,8.50
2019-02-05T00:21:43.301Z,8.40
2019-02-05T00:22:43.323Z,7.60
2019-02-05T00:23:43.322Z,8.60
2019-02-05T00:24:43.765Z,8.90
2019-02-05T00:25:43.433Z,10.50
2019-02-05T00:26:43.662Z,9.20
2019-02-05T00:27:43.394Z,8.90
2019-02-05T00:28:43.368Z,7.90
2019-02-05T00:29:43.376Z,9.00
2019-02-05T00:30:43.391Z,10.60
2019-02-05T00:31:43.390Z,10.80
2019-02-05T00:32:43.402Z,8.70
2019-02-05T00:33:44.046Z,9.20
2019-02-05T00:34:43.428Z,10.40
2019-02-05T00:36:43.441Z,11.30
2019-02-05T00:37:43.452Z,10.50
2019-02-05T00:38:43.784Z,10.10
2019-02-05T00:39:43.467Z,9.30
2019-02-05T00:40:43.485Z,9.40
2019-02-05T00:41:43.487Z,9.70
2019-02-05T00:42:43.516Z,9.00
2019-02-05T00:43:43.522Z,8.70
2019-02-05T00:44:43.618Z,10.60
2019-02-05T00:46:43.571Z,8.90
2019-02-05T00:47:43.553Z,11.10
2019-02-05T00:48:43.555Z,11.20
2019-02-05T00:49:43.564Z,10.70
2019-02-05T00:50:43.571Z,8.80
2019-02-05T00:51:43.582Z,9.80
2019-02-05T00:53:43.805Z,10.40
2019-02-05T00:54:43.606Z,11.40
2019-02-05T00:56:43.640Z,9.90
2019-02-05T00:58:44.089Z,9.80
2019-02-05T00:59:44.196Z,10.60
2019-02-05T01:00:43.779Z,9.10
2019-02-05T01:01:43.675Z,10.50
2019-02-05T01:02:43.684Z,9.80
2019-02-05T01:03:43.691Z,13.40
2019-02-05T01:04:43.708Z,9.50
2019-02-05T01:05:43.777Z,10.90
2019-02-05T01:06:43.726Z,10.60
2019-02-05T01:07:43.734Z,11.30
2019-02-05T01:08:43.747Z,11.20
2019-02-05T01:09:43.851Z,11.40
2019-02-05T01:12:44.396Z,11.70
2019-02-05T01:13:43.786Z,10.30
2019-02-05T01:14:44.101Z,11.40
2019-02-05T01:15:43.877Z,11.30
2019-02-05T01:16:43.820Z,11.60
2019-02-05T01:17:43.828Z,11.00
2019-02-05T01:18:43.834Z,10.40
2019-02-05T01:19:43.858Z,11.70
2019-02-05T01:20:43.858Z,11.60
2019-02-05T01:21:43.983Z,12.30
2019-02-05T01:22:43.871Z,12.50
2019-02-05T01:23:43.877Z,11.40
2019-02-05T01:24:43.895Z,11.60
2019-02-05T01:25:43.896Z,10.90
2019-02-05T01:26:44.009Z,10.60
2019-02-05T01:27:44.225Z,13.10
2019-02-05T01:28:43.967Z,10.50
2019-02-05T01:30:44.272Z,11.60
2019-02-05T01:31:43.981Z,10.60
2019-02-05T01:32:43.959Z,12.60
2019-02-05T01:33:43.976Z,11.30
2019-02-05T01:34:43.983Z,12.30
2019-02-05T01:35:43.989Z,11.10
2019-02-05T01:36:44.016Z,11.80
2019-02-05T01:37:44.006Z,11.60
2019-02-05T01:38:44.017Z,11.90
2019-02-05T01:39:44.025Z,11.90
2019-02-05T01:40:44.041Z,11.50
2019-02-05T01:41:44.056Z,13.60
2019-02-05T01:42:44.447Z,11.00
2019-02-05T01:43:44.057Z,12.60
2019-02-05T01:44:44.072Z,11.40
2019-02-05T01:45:44.185Z,11.60
2019-02-05T01:46:44.131Z,12.50
2019-02-05T01:47:44.195Z,12.10
2019-02-05T01:48:44.099Z,13.00
2019-02-05T01:49:44.109Z,12.80
2019-02-05T01:50:44.127Z,12.70
2019-02-05T01:51:44.128Z,13.30
2019-02-05T01:52:44.139Z,12.30
2019-02-05T01:53:44.158Z,12.40
2019-02-05T01:54:44.157Z,11.50
2019-02-05T01:55:44.167Z,12.40
2019-02-05T01:56:44.174Z,12.30
2019-02-05T01:57:44.186Z,14.40
2019-02-05T01:58:44.304Z,12.90
2019-02-05T02:00:44.223Z,12.40
2019-02-05T02:01:44.219Z,13.20
2019-02-05T02:02:44.235Z,13.10
2019-02-05T02:03:44.247Z,12.50
2019-02-05T02:04:44.255Z,14.20
2019-02-05T02:05:44.259Z,12.80
2019-02-05T02:06:44.272Z,13.70
2019-02-05T02:07:44.276Z,13.40
2019-02-05T02:08:44.283Z,13.30
2019-02-05T02:09:44.293Z,12.80
2019-02-05T02:10:44.308Z,12.70
2019-02-05T02:13:44.336Z,13.70
2019-02-05T02:14:44.339Z,13.70
2019-02-05T02:15:44.414Z,13.90
2019-02-05T02:16:44.358Z,14.70
2019-02-05T02:17:44.369Z,13.90
2019-02-05T02:18:44.384Z,14.80
2019-02-05T02:19:44.388Z,14.30
2019-02-05T02:20:44.397Z,13.90
2019-02-05T02:21:44.410Z,14.30
2019-02-05T02:22:44.417Z,14.60
2019-02-05T02:23:44.427Z,14.50
2019-02-05T02:24:44.430Z,13.70
2019-02-05T02:25:44.550Z,14.60
2019-02-05T02:26:51.840Z,15.20
2019-02-05T02:28:45.109Z,17.60
2019-02-05T02:29:45.190Z,14.90
2019-02-05T02:30:45.168Z,14.00
2019-02-05T02:31:44.494Z,15.30
2019-02-05T02:32:44.513Z,16.20
2019-02-05T02:33:44.517Z,14.90
2019-02-05T02:34:44.527Z,14.90
2019-02-05T02:35:44.531Z,14.80
2019-02-05T02:36:44.543Z,14.90
2019-02-05T02:37:44.563Z,15.00
2019-02-05T02:38:44.569Z,14.30
2019-02-05T02:39:44.568Z,15.80
2019-02-05T02:40:44.579Z,15.40
2019-02-05T02:41:44.651Z,15.30
2019-02-05T02:43:44.612Z,16.10
2019-02-05T02:44:44.618Z,15.30
2019-02-05T02:45:44.692Z,15.30
2019-02-05T02:46:44.640Z,16.20
2019-02-05T02:47:44.644Z,16.50
2019-02-05T02:48:44.654Z,15.30
2019-02-05T02:49:44.665Z,14.80
2019-02-05T02:50:44.676Z,15.20
2019-02-05T02:51:44.680Z,15.70
2019-02-05T02:52:44.691Z,15.40
2019-02-05T02:53:44.703Z,16.30
2019-02-05T02:54:44.708Z,15.00
2019-02-05T02:55:44.716Z,15.10
2019-02-05T02:56:44.729Z,18.40
2019-02-05T02:58:45.016Z,17.80
2019-02-05T02:59:44.908Z,15.90
2019-02-05T03:00:45.671Z,14.90
2019-02-05T03:01:45.530Z,16.50
2019-02-05T03:02:44.790Z,16.80
2019-02-05T03:03:44.792Z,16.20
2019-02-05T03:04:44.823Z,15.70
2019-02-05T03:05:44.812Z,17.20
2019-02-05T03:06:44.826Z,16.90
2019-02-05T03:07:44.874Z,16.70
2019-02-05T03:08:44.850Z,16.50
2019-02-05T03:09:44.846Z,17.00
2019-02-05T03:10:44.902Z,16.10
2019-02-05T03:11:44.873Z,16.90
2019-02-05T03:12:44.874Z,16.80
2019-02-05T03:13:44.886Z,16.30
2019-02-05T03:14:44.895Z,16.40
2019-02-05T03:15:44.903Z,16.90
2019-02-05T03:16:44.912Z,16.90
2019-02-05T03:17:44.931Z,17.00
2019-02-05T03:18:44.930Z,17.80
2019-02-05T03:19:44.945Z,17.00
2019-02-05T03:20:44.948Z,17.90
2019-02-05T03:21:44.960Z,19.00
2019-02-05T03:22:45.815Z,17.50
2019-02-05T03:23:44.984Z,17.10
2019-02-05T03:24:44.998Z,17.70
2019-02-05T03:25:44.995Z,18.00
2019-02-05T03:26:45.007Z,16.70
2019-02-05T03:27:45.015Z,17.80
2019-02-05T03:28:45.026Z,16.90
2019-02-05T03:29:45.060Z,17.80
2019-02-05T03:30:45.057Z,19.00
2019-02-05T03:31:45.094Z,18.90
2019-02-05T03:32:45.063Z,17.70
2019-02-05T03:33:45.079Z,17.90
2019-02-05T03:34:45.200Z,18.80
2019-02-05T03:36:45.102Z,19.30
2019-02-05T03:39:45.127Z,18.70
2019-02-05T03:40:45.142Z,18.30
2019-02-05T03:41:45.149Z,18.40
2019-02-05T03:42:45.155Z,19.60
2019-02-05T03:43:45.167Z,17.70
2019-02-05T03:44:45.172Z,17.30
2019-02-05T03:45:45.185Z,18.70
2019-02-05T03:46:45.191Z,17.10
2019-02-05T03:47:45.211Z,19.30
2019-02-05T03:48:45.208Z,17.60
2019-02-05T03:49:45.218Z,17.70
2019-02-05T03:50:45.354Z,17.50
2019-02-05T03:51:45.266Z,18.30
2019-02-05T03:52:45.260Z,19.10
2019-02-05T03:53:45.256Z,18.60
2019-02-05T03:54:45.267Z,19.10
2019-02-05T03:55:45.273Z,19.00
2019-02-05T03:56:45.290Z,19.40
2019-02-05T03:57:45.293Z,19.60
2019-02-05T03:59:45.425Z,18.70
2019-02-05T04:00:45.454Z,19.60
2019-02-05T04:01:45.359Z,20.80
2019-02-05T04:02:45.341Z,19.60
2019-02-05T04:03:45.367Z,20.60
2019-02-05T04:04:45.356Z,20.80
2019-02-05T04:05:45.367Z,19.10
2019-02-05T04:06:45.382Z,21.40
2019-02-05T04:07:45.386Z,20.40
2019-02-05T04:08:45.401Z,20.90
2019-02-05T04:09:45.403Z,20.70
2019-02-05T04:10:45.561Z,21.20
2019-02-05T04:11:45.424Z,21.20
2019-02-05T04:12:45.431Z,22.50
2019-02-05T04:13:45.442Z,21.10
2019-02-05T04:14:45.456Z,23.10
2019-02-05T04:15:45.466Z,23.50
2019-02-05T04:18:45.499Z,24.50
2019-02-05T04:19:45.505Z,25.30
2019-02-05T04:20:45.509Z,23.60
2019-02-05T04:21:45.517Z,26.20
2019-02-05T04:22:45.528Z,24.10
2019-02-05T04:23:45.535Z,23.70
2019-02-05T04:24:45.546Z,25.00
2019-02-05T04:25:45.557Z,23.70
2019-02-05T04:26:45.564Z,27.70
2019-02-05T04:27:47.433Z,24.30
2019-02-05T04:28:46.298Z,25.60
2019-02-05T04:29:45.590Z,24.50
2019-02-05T04:30:46.112Z,29.70
2019-02-05T04:31:45.618Z,27.20
2019-02-05T04:32:45.622Z,27.00
2019-02-05T04:33:45.698Z,29.70
2019-02-05T04:34:45.643Z,27.60
2019-02-05T04:35:45.647Z,29.30
2019-02-05T04:36:45.667Z,27.00
2019-02-05T04:37:45.670Z,28.00
2019-02-05T04:38:45.672Z,29.20
2019-02-05T04:39:45.687Z,29.40
2019-02-05T04:40:45.692Z,32.30
2019-02-05T04:41:45.702Z,29.50
2019-02-05T04:42:45.769Z,31.30
2019-02-05T04:43:45.729Z,29.60
2019-02-05T04:44:45.737Z,30.60
2019-02-05T04:45:45.747Z,30.70
2019-02-05T04:46:45.760Z,32.60
2019-02-05T04:48:45.979Z,32.40
2019-02-05T04:49:45.778Z,32.80
2019-02-05T04:50:45.786Z,34.30
2019-02-05T04:51:45.802Z,34.10
2019-02-05T04:52:45.818Z,32.80
2019-02-05T04:53:45.813Z,34.60
2019-02-05T04:54:45.827Z,34.10
2019-02-05T04:55:45.831Z,35.00
2019-02-05T04:56:45.839Z,35.00
2019-02-05T04:57:57.026Z,39.40
2019-02-05T04:58:45.876Z,36.80
2019-02-05T04:59:45.878Z,35.80
2019-02-05T05:00:45.880Z,39.90
2019-02-05T05:01:45.961Z,38.80
2019-02-05T05:02:45.919Z,39.10
2019-02-05T05:04:46.483Z,36.60
2019-02-05T05:05:46.833Z,42.30
2019-02-05T05:06:45.957Z,40.50
2019-02-05T05:07:45.945Z,42.80
2019-02-05T05:08:45.951Z,39.80
2019-02-05T05:09:45.967Z,45.60
2019-02-05T05:10:45.969Z,44.20
2019-02-05T05:11:45.978Z,40.50
2019-02-05T05:12:45.991Z,42.00
2019-02-05T05:13:45.999Z,38.10
2019-02-05T05:14:46.019Z,44.10
2019-02-05T05:15:46.020Z,40.20
2019-02-05T05:16:46.025Z,41.40
2019-02-05T05:17:46.035Z,41.80
2019-02-05T05:18:46.052Z,47.60
2019-02-05T05:19:46.064Z,45.70
2019-02-05T05:20:46.066Z,45.90
2019-02-05T05:21:46.070Z,44.60
2019-02-05T05:23:46.091Z,46.30
2019-02-05T05:24:46.105Z,44.40
2019-02-05T05:25:46.119Z,44.20
2019-02-05T05:26:46.220Z,50.00
2019-02-05T05:27:46.133Z,46.30
2019-02-05T05:28:46.179Z,49.70
2019-02-05T05:29:46.180Z,46.70
2019-02-05T05:30:46.159Z,49.80
2019-02-05T05:31:46.167Z,51.30
2019-02-05T05:32:46.176Z,45.50
2019-02-05T05:33:46.320Z,46.70
2019-02-05T05:34:46.338Z,45.90
2019-02-05T05:35:46.203Z,45.80
2019-02-05T05:36:46.238Z,51.80
2019-02-05T05:38:46.565Z,51.80
2019-02-05T05:39:46.340Z,56.00
2019-02-05T05:40:46.655Z,49.60
2019-02-05T05:41:46.262Z,54.90
2019-02-05T05:42:46.288Z,56.20
2019-02-05T05:43:46.284Z,51.10
2019-02-05T05:44:46.291Z,50.70
2019-02-05T05:45:46.609Z,52.90
2019-02-05T05:46:46.376Z,51.40
2019-02-05T05:47:46.364Z,55.50
2019-02-05T05:48:47.639Z,55.30
2019-02-05T05:49:47.876Z,51.30
2019-02-05T05:51:46.354Z,53.10
2019-02-05T05:52:46.362Z,51.20
2019-02-05T05:53:46.409Z,54.40
2019-02-05T05:54:47.450Z,51.20
2019-02-05T05:55:46.389Z,53.50
2019-02-05T05:56:46.395Z,56.40
2019-02-05T05:57:46.408Z,53.60
2019-02-05T05:58:47.237Z,54.00
2019-02-05T05:59:46.429Z,50.00
2019-02-05T06:00:47.029Z,54.40
2019-02-05T06:01:46.443Z,54.30
2019-02-05T06:02:46.483Z,55.10
2019-02-05T06:03:46.485Z,52.10
2019-02-05T06:04:46.618Z,61.10
2019-02-05T06:05:46.499Z,52.50
2019-02-05T06:06:46.490Z,58.30
2019-02-05T06:07:46.515Z,53.00
2019-02-05T06:08:46.510Z,53.50
2019-02-05T06:09:46.521Z,54.50
2019-02-05T06:10:46.532Z,53.30
2019-02-05T06:11:46.540Z,58.10
2019-02-05T06:12:46.547Z,57.50
2019-02-05T06:13:46.557Z,57.40
2019-02-05T06:14:46.717Z,55.00
2019-02-05T06:15:46.576Z,58.60
2019-02-05T06:16:46.874Z,57.90
2019-02-05T06:18:46.675Z,58.30
2019-02-05T06:19:46.612Z,59.90
2019-02-05T06:20:46.765Z,59.90
2019-02-05T06:21:46.628Z,62.10
2019-02-05T06:22:46.638Z,56.30
2019-02-05T06:23:46.651Z,57.10
2019-02-05T06:24:46.666Z,63.40
2019-02-05T06:25:46.672Z,59.50
2019-02-05T06:26:46.680Z,62.00
2019-02-05T06:27:46.685Z,55.70
2019-02-05T06:28:46.700Z,63.00
2019-02-05T06:29:46.806Z,60.70
2019-02-05T06:30:46.729Z,60.30
2019-02-05T06:31:46.723Z,61.50
2019-02-05T06:32:46.731Z,67.40
2019-02-05T06:33:46.841Z,63.50
2019-02-05T06:34:47.357Z,60.00
2019-02-05T06:35:46.765Z,56.50
2019-02-05T06:36:47.727Z,61.80
2019-02-05T06:37:47.498Z,65.50
2019-02-05T06:39:46.812Z,62.90
2019-02-05T06:40:46.830Z,61.60
2019-02-05T06:41:46.834Z,70.10
2019-02-05T06:42:46.825Z,61.70
2019-02-05T06:43:46.836Z,63.70
2019-02-05T06:44:46.845Z,71.40
2019-02-05T06:46:46.940Z,66.10
2019-02-05T06:48:47.269Z,65.20
2019-02-05T06:50:46.913Z,69.50
2019-02-05T06:51:46.907Z,64.30
2019-02-05T06:52:46.923Z,63.90
2019-02-05T06:53:46.933Z,70.00
2019-02-05T06:54:47.021Z,65.50
2019-02-05T06:55:46.945Z,66.40
2019-02-05T06:56:46.958Z,71.50
2019-02-05T06:59:47.499Z,67.90
2019-02-05T07:00:47.682Z,75.60
2019-02-05T07:01:47.120Z,68.60
2019-02-05T07:02:47.018Z,73.00
2019-02-05T07:03:47.027Z,70.70
2019-02-05T07:04:47.035Z,69.70
2019-02-05T07:05:47.131Z,76.80
2019-02-05T07:06:47.112Z,72.10
2019-02-05T07:08:47.117Z,73.00
2019-02-05T07:09:47.293Z,77.40
2019-02-05T07:10:47.099Z,71.90
2019-02-05T07:11:47.134Z,69.00
2019-02-05T07:12:49.190Z,70.40
2019-02-05T07:14:47.193Z,77.40
2019-02-05T07:15:47.167Z,75.90
2019-02-05T07:16:47.161Z,77.70
2019-02-05T07:17:49.690Z,79.50
2019-02-05T07:18:47.172Z,74.30
2019-02-05T07:19:47.186Z,83.40
2019-02-05T07:20:47.223Z,76.50
2019-02-05T07:21:47.203Z,85.50
2019-02-05T07:22:47.211Z,77.20
2019-02-05T07:23:47.378Z,80.80
2019-02-05T07:24:47.230Z,85.50
2019-02-05T07:25:47.573Z,80.30
2019-02-05T07:26:47.250Z,82.90
2019-02-05T07:27:47.258Z,77.60
2019-02-05T07:28:58.112Z,70.20
2019-02-05T07:29:48.114Z,68.40
2019-02-05T07:30:47.313Z,80.10
2019-02-05T07:32:48.514Z,73.70
2019-02-05T07:33:47.520Z,69.30
2019-02-05T07:34:47.327Z,71.60
2019-02-05T07:35:47.339Z,78.10
2019-02-05T07:36:47.398Z,68.30
2019-02-05T07:39:47.483Z,80.90
2019-02-05T07:40:47.392Z,69.60
2019-02-05T07:41:47.405Z,72.80
2019-02-05T07:42:47.406Z,68.40
2019-02-05T07:43:47.417Z,77.50
2019-02-05T07:44:47.527Z,70.40
2019-02-05T07:45:47.446Z,68.50
2019-02-05T07:46:47.443Z,67.80
2019-02-05T07:47:47.451Z,71.30
2019-02-05T07:48:47.466Z,75.20
2019-02-05T07:49:47.467Z,71.80
2019-02-05T07:50:47.479Z,67.00
2019-02-05T07:51:47.514Z,62.20
2019-02-05T07:52:47.507Z,67.10
2019-02-05T07:53:47.517Z,66.00
2019-02-05T07:54:47.518Z,63.90
2019-02-05T07:55:47.524Z,66.20
2019-02-05T07:56:47.536Z,64.40
2019-02-05T07:57:47.553Z,71.00
2019-02-05T07:58:47.577Z,69.30
2019-02-05T07:59:47.578Z,70.70
2019-02-05T08:00:47.658Z,63.60
2019-02-05T08:01:47.583Z,63.20
2019-02-05T08:02:47.593Z,62.70
2019-02-05T08:03:47.600Z,59.30
2019-02-05T08:04:47.610Z,58.00
2019-02-05T08:05:47.625Z,60.90
2019-02-05T08:06:47.629Z,64.00
2019-02-05T08:07:47.644Z,62.00
2019-02-05T08:08:47.752Z,58.10
2019-02-05T08:09:47.919Z,60.00
2019-02-05T08:10:48.608Z,53.90
2019-02-05T08:11:47.679Z,52.80
2019-02-05T08:12:47.820Z,50.50
2019-02-05T08:13:47.696Z,51.70
2019-02-05T08:14:47.709Z,48.50
2019-02-05T08:15:47.713Z,52.90
2019-02-05T08:16:48.151Z,53.70
2019-02-05T08:18:47.749Z,56.80
2019-02-05T08:19:47.745Z,51.00
2019-02-05T08:20:47.758Z,53.40
2019-02-05T08:21:48.865Z,47.90
2019-02-05T08:22:47.776Z,48.50
2019-02-05T08:23:47.786Z,48.70
2019-02-05T08:24:47.797Z,52.10
2019-02-05T08:25:47.807Z,47.40
2019-02-05T08:26:47.814Z,51.20
2019-02-05T08:27:47.832Z,49.60
2019-02-05T08:28:47.846Z,48.80
2019-02-05T08:29:47.890Z,52.80
2019-02-05T08:30:47.853Z,54.50
2019-02-05T08:31:47.985Z,51.60
2019-02-05T08:32:48.028Z,48.40
2019-02-05T08:33:48.755Z,47.80
2019-02-05T08:34:47.892Z,52.20
2019-02-05T08:35:48.209Z,50.10
2019-02-05T08:36:47.918Z,51.10
2019-02-05T08:37:47.925Z,54.60
2019-02-05T08:38:47.935Z,55.40
2019-02-05T08:39:47.945Z,52.80
2019-02-05T08:40:47.998Z,56.50
2019-02-05T08:41:47.988Z,57.10
2019-02-05T08:42:48.569Z,54.10
2019-02-05T08:43:47.977Z,54.40
2019-02-05T08:44:48.020Z,54.60
2019-02-05T08:45:56.330Z,59.30
2019-02-05T08:46:48.026Z,55.30
2019-02-05T08:47:48.012Z,52.60
2019-02-05T08:48:48.174Z,54.50
2019-02-05T08:50:48.044Z,50.30
2019-02-05T08:51:48.051Z,49.10
2019-02-05T08:52:48.072Z,56.50
2019-02-05T08:53:48.072Z,51.70
2019-02-05T08:54:48.084Z,52.90
2019-02-05T08:55:48.363Z,51.10
2019-02-05T08:57:48.110Z,56.10
2019-02-05T08:58:48.285Z,52.30
2019-02-05T08:59:48.262Z,52.00
2019-02-05T09:00:48.141Z,56.50
2019-02-05T09:01:48.350Z,48.40
2019-02-05T09:02:48.168Z,50.30
2019-02-05T09:03:48.175Z,47.30
2019-02-05T09:04:48.294Z,51.10
2019-02-05T09:05:48.195Z,50.10
2019-02-05T09:06:48.209Z,52.40
2019-02-05T09:07:48.204Z,56.20
2019-02-05T09:08:48.243Z,51.20
2019-02-05T09:09:48.294Z,49.20
2019-02-05T09:10:48.241Z,50.80
2019-02-05T09:11:48.444Z,51.90
2019-02-05T09:12:48.277Z,45.10
2019-02-05T09:13:48.264Z,52.10
2019-02-05T09:14:48.270Z,50.00
2019-02-05T09:15:48.280Z,52.10
2019-02-05T09:16:48.305Z,50.50
2019-02-05T09:17:48.297Z,52.50
2019-02-05T09:18:48.325Z,52.80
2019-02-05T09:19:48.322Z,53.80
2019-02-05T09:20:48.456Z,50.10
2019-02-05T09:21:48.348Z,50.30
2019-02-05T09:22:48.348Z,48.70
2019-02-05T09:23:48.359Z,49.70
2019-02-05T09:24:48.365Z,47.50
2019-02-05T09:25:48.375Z,47.90
2019-02-05T09:26:48.389Z,47.10
2019-02-05T09:27:48.398Z,50.10
2019-02-05T09:28:48.459Z,51.30
2019-02-05T09:30:48.451Z,50.60
2019-02-05T09:31:48.433Z,50.70
2019-02-05T09:32:48.444Z,50.60
2019-02-05T09:33:48.459Z,48.40
2019-02-05T09:34:48.682Z,47.50
2019-02-05T09:35:48.650Z,52.90
2019-02-05T09:36:48.487Z,50.10
2019-02-05T09:37:48.490Z,44.30
2019-02-05T09:38:48.501Z,44.20
2019-02-05T09:39:48.518Z,47.80
2019-02-05T09:40:48.532Z,50.30
2019-02-05T09:41:48.530Z,48.50
2019-02-05T09:42:48.542Z,49.40
2019-02-05T09:43:48.555Z,48.80
2019-02-05T09:44:48.576Z,48.20
2019-02-05T09:45:48.576Z,48.40
2019-02-05T09:46:48.592Z,46.40
2019-02-05T09:47:49.306Z,42.90
2019-02-05T09:48:48.613Z,41.70
2019-02-05T09:49:48.614Z,40.20
2019-02-05T09:50:48.635Z,39.60
2019-02-05T09:51:48.654Z,44.00
2019-02-05T09:52:48.638Z,39.10
2019-02-05T09:53:48.657Z,40.90
2019-02-05T09:54:48.656Z,44.10
2019-02-05T09:55:48.667Z,41.10
2019-02-05T09:56:48.675Z,41.30
2019-02-05T09:57:49.768Z,40.20
2019-02-05T09:58:48.696Z,36.70
2019-02-05T09:59:48.705Z,39.40
2019-02-05T10:00:48.714Z,37.00
2019-02-05T10:01:48.723Z,34.00
2019-02-05T10:02:48.733Z,36.30
2019-02-05T10:03:48.742Z,32.00
2019-02-05T10:04:48.816Z,34.70
2019-02-05T10:06:50.161Z,26.80
2019-02-05T10:07:48.788Z,26.20
2019-02-05T10:08:48.815Z,25.50
2019-02-05T10:09:51.136Z,24.10
2019-02-05T10:10:49.581Z,25.90
2019-02-05T10:11:48.821Z,24.20
2019-02-05T10:12:48.837Z,24.40
2019-02-05T10:13:48.842Z,24.60
2019-02-05T10:14:48.871Z,25.70
2019-02-05T10:15:48.858Z,26.60
2019-02-05T10:16:48.871Z,25.80
2019-02-05T10:17:48.879Z,24.00
2019-02-05T10:18:48.901Z,26.80
2019-02-05T10:19:48.903Z,25.10
2019-02-05T10:20:48.922Z,25.60
2019-02-05T10:21:48.988Z,29.50
2019-02-05T10:22:48.930Z,25.40
2019-02-05T10:23:48.941Z,28.60
2019-02-05T10:24:49.947Z,27.40
2019-02-05T10:25:48.972Z,27.60
2019-02-05T10:26:48.969Z,26.50
2019-02-05T10:27:49.060Z,27.50
2019-02-05T10:28:49.027Z,24.90
2019-02-05T10:29:57.793Z,24.20
2019-02-05T10:30:49.017Z,25.00
2019-02-05T10:31:49.027Z,24.30
2019-02-05T10:32:49.027Z,23.50
2019-02-05T10:33:55.379Z,21.00
2019-02-05T10:34:49.052Z,21.50
2019-02-05T10:35:49.068Z,23.30
2019-02-05T10:36:49.070Z,22.00
2019-02-05T10:37:49.085Z,19.30
2019-02-05T10:38:49.098Z,20.80
2019-02-05T10:39:49.099Z,19.80
2019-02-05T10:40:49.118Z,20.00
2019-02-05T10:41:49.120Z,21.30
2019-02-05T10:42:49.132Z,19.10
2019-02-05T10:43:49.141Z,19.30
2019-02-05T10:44:49.149Z,20.50
2019-02-05T10:45:49.245Z,18.50
2019-02-05T10:46:49.173Z,22.00
2019-02-05T10:47:49.178Z,19.30
2019-02-05T10:48:49.318Z,20.50
2019-02-05T10:49:49.204Z,19.20
2019-02-05T10:50:49.213Z,20.80
2019-02-05T10:51:49.222Z,21.30
2019-02-05T10:52:49.244Z,20.50
2019-02-05T10:53:49.241Z,22.40
2019-02-05T10:54:49.262Z,20.70
2019-02-05T10:55:49.264Z,21.90
2019-02-05T10:56:49.276Z,20.60
2019-02-05T10:57:49.284Z,22.90
2019-02-05T10:58:49.293Z,24.30
2019-02-05T10:59:49.305Z,25.10
2019-02-05T11:00:49.309Z,23.30
2019-02-05T11:01:49.619Z,23.00
2019-02-05T11:02:49.337Z,26.00
2019-02-05T11:03:49.353Z,25.00
2019-02-05T11:04:49.350Z,22.70
2019-02-05T11:05:49.363Z,24.10
2019-02-05T11:06:49.372Z,22.40
2019-02-05T11:07:49.375Z,23.10
2019-02-05T11:08:49.394Z,25.70
2019-02-05T11:09:49.412Z,21.30
2019-02-05T11:10:49.418Z,24.20
2019-02-05T11:11:49.415Z,22.30
2019-02-05T11:12:49.426Z,24.10
2019-02-05T11:13:49.441Z,25.20
2019-02-05T11:14:49.448Z,21.90
2019-02-05T11:15:49.458Z,25.10
2019-02-05T11:16:49.467Z,23.10
2019-02-05T11:17:49.475Z,24.00
2019-02-05T11:18:49.827Z,26.60
2019-02-05T11:19:49.496Z,25.10
2019-02-05T11:20:49.506Z,25.90
2019-02-05T11:21:49.583Z,27.80
2019-02-05T11:22:49.645Z,25.30
2019-02-05T11:23:49.543Z,24.20
2019-02-05T11:24:49.544Z,23.40
2019-02-05T11:25:49.561Z,27.00
2019-02-05T11:26:49.563Z,22.10
2019-02-05T11:27:49.572Z,23.90
2019-02-05T11:28:49.585Z,24.60
2019-02-05T11:29:49.596Z,23.30
2019-02-05T11:30:49.607Z,25.50
2019-02-05T11:31:49.612Z,25.10
2019-02-05T11:32:49.639Z,24.10
2019-02-05T11:33:49.636Z,25.80
2019-02-05T11:34:49.644Z,22.80
2019-02-05T11:35:49.660Z,22.80
2019-02-05T11:36:49.671Z,26.40
2019-02-05T11:37:49.682Z,25.10
2019-02-05T11:38:49.690Z,22.20
2019-02-05T11:39:49.919Z,22.60
2019-02-05T11:40:49.703Z,20.50
2019-02-05T11:41:49.714Z,24.40
2019-02-05T11:42:49.724Z,22.50
2019-02-05T11:43:49.759Z,24.70
2019-02-05T11:44:49.746Z,24.40
2019-02-05T11:45:49.756Z,23.90
2019-02-05T11:46:49.765Z,23.40
2019-02-05T11:47:49.787Z,23.30
2019-02-05T11:48:49.827Z,22.60
2019-02-05T11:49:49.804Z,24.40
2019-02-05T11:51:49.815Z,26.30
2019-02-05T11:52:49.850Z,22.70
2019-02-05T11:53:49.892Z,22.40
2019-02-05T11:54:49.864Z,21.10
2019-02-05T11:55:49.855Z,22.40
2019-02-05T11:56:49.879Z,22.40
2019-02-05T11:57:49.904Z,23.30
2019-02-05T11:58:49.910Z,20.00
2019-02-05T11:59:50.492Z,21.60
2019-02-05T12:00:50.040Z,24.40
2019-02-05T12:01:49.927Z,21.30
2019-02-05T12:02:49.955Z,23.40
2019-02-05T12:03:49.939Z,24.10
2019-02-05T12:04:49.944Z,24.50
2019-02-05T12:05:50.538Z,23.10
2019-02-05T12:06:50.019Z,23.80
2019-02-05T12:07:49.977Z,23.20
2019-02-05T12:08:49.993Z,24.50
2019-02-05T12:09:50.003Z,23.90
2019-02-05T12:10:50.013Z,23.80
2019-02-05T12:11:50.021Z,25.90
2019-02-05T12:12:50.020Z,25.10
2019-02-05T12:15:50.067Z,24.20
2019-02-05T12:16:50.064Z,23.80
2019-02-05T12:17:50.082Z,23.20
2019-02-05T12:19:50.626Z,24.10
2019-02-05T12:20:50.748Z,22.00
2019-02-05T12:22:51.450Z,24.60
2019-02-05T12:23:50.368Z,25.20
2019-02-05T12:24:50.156Z,24.20
2019-02-05T12:26:50.175Z,26.20
2019-02-05T12:27:50.584Z,24.00
2019-02-05T12:28:50.211Z,21.10
2019-02-05T12:29:50.205Z,24.60
2019-02-05T12:30:50.258Z,23.20
2019-02-05T12:31:50.240Z,22.20
2019-02-05T12:33:50.279Z,23.80
2019-02-05T12:34:50.259Z,24.90
2019-02-05T12:37:50.310Z,22.10
2019-02-05T12:38:50.308Z,23.40
2019-02-05T12:39:50.355Z,23.50
2019-02-05T12:41:50.543Z,22.40
2019-02-05T12:43:50.447Z,27.40
2019-02-05T12:44:50.357Z,24.10
2019-02-05T12:45:50.360Z,23.60
2019-02-05T12:46:50.462Z,23.40
2019-02-05T12:47:50.418Z,22.80
2019-02-05T12:49:50.401Z,23.20
2019-02-05T12:50:50.403Z,23.30
2019-02-05T12:51:50.500Z,23.80
2019-02-05T12:52:50.434Z,22.80
2019-02-05T12:53:50.499Z,21.20
2019-02-05T12:54:50.456Z,24.60
2019-02-05T12:55:50.457Z,20.20
2019-02-05T12:56:50.470Z,23.60
2019-02-05T12:57:50.488Z,24.40
2019-02-05T12:58:50.646Z,23.80
2019-02-05T12:59:50.506Z,21.70
2019-02-05T13:00:59.223Z,24.90
2019-02-05T13:01:50.535Z,22.10
2019-02-05T13:02:50.537Z,22.60
2019-02-05T13:03:50.541Z,23.10
2019-02-05T13:04:50.649Z,22.30
2019-02-05T13:05:50.840Z,22.30
2019-02-05T13:06:50.717Z,23.80
2019-02-05T13:07:50.631Z,24.10
2019-02-05T13:08:50.743Z,23.80
2019-02-05T13:09:50.600Z,22.90
2019-02-05T13:10:50.608Z,25.60
2019-02-05T13:11:51.257Z,24.30
2019-02-05T13:12:51.022Z,23.30
2019-02-05T13:13:50.645Z,25.20
2019-02-05T13:14:50.653Z,22.90
2019-02-05T13:15:51.117Z,22.60
2019-02-05T13:16:50.670Z,22.20
2019-02-05T13:17:50.753Z,22.20
2019-02-05T13:18:51.971Z,24.60
2019-02-05T13:19:51.303Z,23.50
2019-02-05T13:20:51.055Z,24.20
2019-02-05T13:21:50.734Z,24.90
2019-02-05T13:22:50.862Z,23.80
2019-02-05T13:23:50.748Z,23.70
2019-02-05T13:24:50.749Z,21.80
2019-02-05T13:25:50.770Z,22.30
2019-02-05T13:26:50.797Z,24.00
2019-02-05T13:27:50.785Z,24.80
2019-02-05T13:28:50.807Z,21.80
2019-02-05T13:30:51.218Z,21.00
2019-02-05T13:31:52.214Z,23.40
2019-02-05T13:32:50.867Z,21.50
2019-02-05T13:33:50.882Z,20.90
2019-02-05T13:34:50.864Z,21.90
2019-02-05T13:35:50.888Z,21.30
2019-02-05T13:36:53.270Z,22.00
2019-02-05T13:37:52.721Z,21.90
2019-02-05T13:38:50.907Z,23.20
2019-02-05T13:39:51.654Z,23.30
2019-02-05T13:40:51.313Z,23.00
2019-02-05T13:41:50.941Z,23.00
2019-02-05T13:42:51.179Z,21.80
2019-02-05T13:43:51.696Z,21.40
2019-02-05T13:44:50.967Z,22.00
2019-02-05T13:45:50.975Z,23.70
2019-02-05T13:46:51.450Z,20.50
2019-02-05T13:47:50.987Z,23.60
2019-02-05T13:48:51.014Z,22.70
2019-02-05T13:49:51.067Z,21.80
2019-02-05T13:50:51.036Z,20.80